Time;durP1;ratioP1;P1;durP2;ratioP2;P2;SDS_P1;SDS_P2;PMS_P1;PMS_P2;Temp;Humidity;BMP_temperature;BMP_pressure;BME280_temperature;BME280_humidity;BME280_pressure;Samples;Min_cycle;Max_cycle;Signal;HPM_P1;HPM_P2
2023/07/06 00:01:48;;;;;;;5.05;0.90;;;;;;;15.06;69.88;100486.97;5012397;28;20056;-45
2023/07/06 00:04:15;;;;;;;1.83;1.10;;;;;;;15.07;69.83;100494.16;5011551;28;20088;-44
2023/07/06 00:06:42;;;;;;;1.58;0.65;;;;;;;15.00;69.74;100491.31;5012470;28;20085;-44
2023/07/06 00:09:09;;;;;;;4.50;1.55;;;;;;;14.95;69.93;100491.66;5012000;28;20761;-45
2023/07/06 00:11:38;;;;;;;1.65;1.08;;;;;;;14.94;70.08;100478.06;5012478;28;20053;-44
2023/07/06 00:14:07;;;;;;;3.50;0.77;;;;;;;14.94;70.16;100476.09;5005435;28;20069;-45
2023/07/06 00:16:34;;;;;;;2.55;0.77;;;;;;;14.94;70.25;100480.88;4984420;28;20077;-49
2023/07/06 00:19:01;;;;;;;2.63;0.88;;;;;;;14.92;70.19;100483.25;5006826;28;20038;-44
2023/07/06 00:21:31;;;;;;;2.88;0.73;;;;;;;14.88;70.36;100480.41;5011809;28;20046;-45
2023/07/06 00:23:58;;;;;;;3.75;1.00;;;;;;;14.89;70.24;100475.63;4994547;28;20053;-45
2023/07/06 00:26:25;;;;;;;2.88;0.60;;;;;;;14.89;70.38;100482.00;5011204;28;20499;-44
2023/07/06 00:28:53;;;;;;;1.50;0.98;;;;;;;14.89;70.50;100479.22;5010294;28;20128;-44
2023/07/06 00:31:31;;;;;;;3.08;0.68;;;;;;;14.92;70.47;100472.91;5006612;28;20049;-46
2023/07/06 00:34:04;;;;;;;1.33;0.80;;;;;;;14.93;70.78;100471.69;5012064;28;20523;-45
2023/07/06 00:36:32;;;;;;;0.98;0.45;;;;;;;14.91;70.65;100473.25;5012022;28;20074;-44
2023/07/06 00:39:02;;;;;;;0.70;0.70;;;;;;;14.92;70.71;100475.69;4993465;28;20199;-44
2023/07/06 00:41:30;;;;;;;0.50;0.50;;;;;;;14.91;70.83;100473.25;4994097;28;20412;-45
2023/07/06 00:43:58;;;;;;;3.25;0.70;;;;;;;14.88;70.91;100474.81;4994526;28;20044;-44
2023/07/06 00:46:36;;;;;;;0.85;0.30;;;;;;;14.86;71.14;100470.81;5012775;28;20081;-45
2023/07/06 00:49:05;;;;;;;1.30;0.60;;;;;;;14.86;71.23;100474.41;5011778;28;20463;-44
2023/07/06 00:51:37;;;;;;;1.48;0.30;;;;;;;14.87;71.41;100478.81;5011542;28;20045;-47
2023/07/06 00:54:08;;;;;;;2.00;0.40;;;;;;;14.89;71.26;100481.22;5011470;28;20511;-45
2023/07/06 00:56:40;;;;;;;0.82;0.50;;;;;;;14.84;71.63;100490.72;5010917;28;20746;-45
2023/07/06 00:59:11;;;;;;;3.63;0.70;;;;;;;14.81;71.63;100480.31;5011504;28;20081;-47
2023/07/06 01:01:41;;;;;;;0.63;0.40;;;;;;;14.81;71.64;100477.53;5011235;28;20049;-44
2023/07/06 01:04:12;;;;;;;0.63;0.52;;;;;;;14.83;71.51;100472.38;5010487;28;20042;-44
2023/07/06 01:06:49;;;;;;;0.70;0.50;;;;;;;14.86;71.60;100477.19;5011677;28;20072;-45
2023/07/06 01:09:20;;;;;;;1.15;0.68;;;;;;;14.86;71.66;100477.19;5011362;28;20077;-46
2023/07/06 01:11:47;;;;;;;1.10;0.57;;;;;;;14.81;71.56;100463.59;5011729;28;20060;-45
2023/07/06 01:14:14;;;;;;;2.00;0.47;;;;;;;14.79;71.59;100471.56;5009509;28;20064;-48
2023/07/06 01:17:03;;;;;;;0.80;0.60;;;;;;;14.78;71.58;100469.94;5011488;28;20085;-44
2023/07/06 01:19:32;;;;;;;2.58;0.68;;;;;;;14.75;71.55;100476.25;5005602;28;20555;-44
2023/07/06 01:22:31;;;;;;;0.80;0.80;;;;;;;14.72;71.58;100473.44;4997449;28;20073;-44
2023/07/06 01:25:07;;;;;;;3.53;0.77;;;;;;;14.67;71.57;100474.56;5000849;28;20054;-45
2023/07/06 01:27:55;;;;;;;1.92;0.70;;;;;;;14.65;71.56;100468.59;5010354;28;20074;-45
2023/07/06 01:30:37;;;;;;;2.53;0.95;;;;;;;14.61;71.61;100462.19;5000231;28;20049;-44
2023/07/06 01:33:40;;;;;;;1.05;0.50;;;;;;;14.60;71.71;100463.34;5011251;28;20046;-44
2023/07/06 01:36:28;;;;;;;4.40;1.00;;;;;;;14.59;71.24;100467.31;5008123;28;20439;-45
2023/07/06 01:39:11;;;;;;;1.50;0.63;;;;;;;14.53;71.23;100458.47;5010494;28;20060;-46
2023/07/06 01:41:40;;;;;;;2.65;0.80;;;;;;;14.50;71.17;100458.44;5010951;28;20101;-47
2023/07/06 01:44:12;;;;;;;2.67;1.15;;;;;;;14.45;71.38;100459.59;5013041;28;20065;-47
2023/07/06 01:46:45;;;;;;;5.53;1.17;;;;;;;14.43;71.57;100459.16;4985361;28;20046;-47
2023/07/06 01:49:12;;;;;;;1.23;0.80;;;;;;;14.46;71.43;100460.38;5010350;28;20050;-44
2023/07/06 01:51:48;;;;;;;1.70;0.90;;;;;;;14.45;71.38;100451.22;4990057;28;20496;-45
2023/07/06 01:54:21;;;;;;;2.45;0.98;;;;;;;14.45;71.20;100450.44;5006136;28;20084;-46
2023/07/06 01:57:00;;;;;;;2.13;1.05;;;;;;;14.46;71.39;100443.66;5010985;28;20046;-45
2023/07/06 01:59:32;;;;;;;1.02;0.88;;;;;;;14.45;71.32;100442.06;5010944;28;20046;-46
2023/07/06 02:02:02;;;;;;;4.93;0.98;;;;;;;14.42;71.25;100438.06;5010882;28;20064;-45
2023/07/06 02:04:32;;;;;;;1.85;1.10;;;;;;;14.39;71.16;100435.22;5011151;28;20042;-46
2023/07/06 02:07:05;;;;;;;1.95;0.90;;;;;;;14.39;71.23;100429.66;5009946;28;20113;-46
2023/07/06 02:09:33;;;;;;;4.15;1.25;;;;;;;14.40;71.11;100431.25;5010660;28;20516;-45
2023/07/06 02:12:00;;;;;;;3.58;1.00;;;;;;;14.41;71.08;100432.84;5009913;28;20104;-45
2023/07/06 02:14:26;;;;;;;10.20;2.80;;;;;;;14.43;70.96;100436.84;5012323;28;20488;-44
2023/07/06 02:16:54;;;;;;;1.52;0.90;;;;;;;14.45;71.02;100433.72;5015149;28;20443;-47
2023/07/06 02:19:21;;;;;;;1.60;1.10;;;;;;;14.41;70.98;100425.31;4987514;28;20046;-44
2023/07/06 02:21:51;;;;;;;7.97;1.05;;;;;;;14.40;70.92;100432.03;5010295;28;20073;-45
2023/07/06 02:24:18;;;;;;;5.75;1.10;;;;;;;14.39;71.03;100424.88;5010709;28;20046;-45
2023/07/06 02:26:46;;;;;;;2.40;1.00;;;;;;;14.37;71.14;100426.44;5012052;28;20108;-46
2023/07/06 02:29:14;;;;;;;1.67;1.05;;;;;;;14.35;71.15;100417.69;5011785;28;20041;-45
2023/07/06 02:31:41;;;;;;;7.05;2.25;;;;;;;14.32;71.22;100418.44;4996505;28;20966;-45
2023/07/06 02:34:08;;;;;;;1.88;1.13;;;;;;;14.27;71.42;100410.38;5013837;28;20076;-45
2023/07/06 02:36:37;;;;;;;3.88;1.10;;;;;;;14.26;71.47;100408.75;5014186;28;20070;-44
2023/07/06 02:39:04;;;;;;;6.93;1.13;;;;;;;14.25;71.47;100412.72;5014362;28;20053;-44
2023/07/06 02:41:31;;;;;;;3.28;1.02;;;;;;;14.22;71.49;100402.31;5013765;28;20060;-44
2023/07/06 02:43:58;;;;;;;2.78;0.98;;;;;;;14.22;71.63;100405.13;5012936;28;20069;-45
2023/07/06 02:46:25;;;;;;;3.53;0.93;;;;;;;14.23;71.57;100403.94;5005426;28;20057;-45
2023/07/06 02:48:52;;;;;;;4.18;0.98;;;;;;;14.22;71.61;100403.13;5013998;28;20054;-45
2023/07/06 02:51:19;;;;;;;5.57;1.02;;;;;;;14.25;71.91;100401.56;5013359;28;20060;-49
2023/07/06 02:53:45;;;;;;;4.85;1.45;;;;;;;14.28;71.68;100403.59;5013818;28;20042;-44
2023/07/06 02:56:12;;;;;;;1.45;1.20;;;;;;;14.28;71.79;100396.06;5013565;28;20115;-46
2023/07/06 02:58:39;;;;;;;4.78;1.17;;;;;;;14.25;71.87;100404.34;5013443;28;20053;-46
2023/07/06 03:01:08;;;;;;;5.72;2.22;;;;;;;14.21;71.84;100395.19;5109494;22;20415;-47
2023/07/06 03:03:35;;;;;;;2.03;0.90;;;;;;;14.23;71.91;100401.97;5010033;28;20058;-45
2023/07/06 03:06:03;;;;;;;3.17;1.33;;;;;;;14.25;71.73;100399.59;5013379;28;20395;-45
2023/07/06 03:08:30;;;;;;;2.95;1.00;;;;;;;14.24;71.91;100391.63;5012830;28;20046;-45
2023/07/06 03:10:57;;;;;;;3.55;1.85;;;;;;;14.25;71.78;100393.22;5000820;28;20100;-44
2023/07/06 03:13:28;;;;;;;1.17;1.08;;;;;;;14.26;71.95;100392.06;4995446;28;20592;-45
2023/07/06 03:15:58;;;;;;;2.20;1.13;;;;;;;14.25;71.91;100396.81;5013352;28;20045;-44
2023/07/06 03:18:26;;;;;;;1.13;0.75;;;;;;;14.28;71.97;100395.25;4995274;28;20407;-45
2023/07/06 03:20:52;;;;;;;1.65;1.10;;;;;;;14.28;72.05;100395.25;5013031;28;20049;-45
2023/07/06 03:23:21;;;;;;;1.25;1.00;;;;;;;14.27;72.21;100394.44;5013437;28;20052;-45
2023/07/06 03:25:51;;;;;;;2.67;0.95;;;;;;;14.27;72.27;100393.66;5013104;28;20507;-45
2023/07/06 03:28:20;;;;;;;3.83;1.30;;;;;;;14.26;72.18;100387.28;4986670;28;20061;-48
2023/07/06 03:30:56;;;;;;;3.08;1.30;;;;;;;14.27;72.22;100382.53;5012446;28;20462;-46
2023/07/06 03:33:24;;;;;;;2.92;0.90;;;;;;;14.25;72.18;100390.44;5013070;28;20129;-45
2023/07/06 03:35:53;;;;;;;2.25;0.85;;;;;;;14.23;72.30;100390.03;5007774;28;20507;-46
2023/07/06 03:38:21;;;;;;;3.58;1.50;;;;;;;14.22;72.32;100391.19;5012935;28;20491;-46
2023/07/06 03:40:50;;;;;;;3.63;1.23;;;;;;;14.24;72.19;100388.84;5013079;28;20046;-45
2023/07/06 03:43:19;;;;;;;2.30;1.02;;;;;;;14.26;72.36;100387.28;5012804;28;20050;-47
2023/07/06 03:45:48;;;;;;;1.95;1.13;;;;;;;14.27;72.38;100382.53;5010551;28;20503;-48
2023/07/06 03:48:15;;;;;;;4.78;1.17;;;;;;;14.28;72.29;100389.69;5012399;28;20046;-48
2023/07/06 03:50:44;;;;;;;3.78;1.05;;;;;;;14.28;72.16;100375.75;5012590;28;20064;-44
2023/07/06 03:53:12;;;;;;;10.27;1.30;;;;;;;14.26;72.43;100380.91;5011226;28;20049;-45
2023/07/06 03:55:40;;;;;;;1.75;1.00;;;;;;;14.27;72.53;100376.97;5012562;28;20140;-46
2023/07/06 03:58:10;;;;;;;1.40;0.85;;;;;;;14.27;72.49;100374.19;5012801;28;20112;-46
2023/07/06 04:00:38;;;;;;;2.65;1.13;;;;;;;14.27;72.78;100372.16;5012613;28;20041;-45
2023/07/06 04:03:06;;;;;;;4.65;1.30;;;;;;;14.27;72.68;100372.16;5012148;28;20057;-46
2023/07/06 04:05:37;;;;;;;4.60;1.13;;;;;;;14.26;72.59;100369.78;5012092;28;20919;-45
2023/07/06 04:08:08;;;;;;;1.80;1.10;;;;;;;14.24;72.90;100372.16;5012329;28;20446;-44
2023/07/06 04:10:38;;;;;;;2.75;1.05;;;;;;;14.20;72.69;100363.75;4994509;28;20499;-46
2023/07/06 04:13:09;;;;;;;5.85;1.80;;;;;;;14.15;72.43;100363.25;5012469;28;20092;-45
2023/07/06 04:15:39;;;;;;;4.55;1.13;;;;;;;14.12;72.55;100358.44;5011995;28;20045;-45
2023/07/06 04:18:06;;;;;;;2.13;1.15;;;;;;;14.09;72.67;100362.00;5006590;28;20062;-45
2023/07/06 04:20:34;;;;;;;2.25;1.25;;;;;;;14.11;72.54;100359.66;5010945;28;20061;-45
2023/07/06 04:23:02;;;;;;;1.45;1.10;;;;;;;14.12;72.63;100361.22;5012132;28;20050;-46
2023/07/06 04:25:31;;;;;;;3.35;1.15;;;;;;;14.11;72.56;100370.78;5012266;28;20491;-45
2023/07/06 04:28:05;;;;;;;4.18;1.23;;;;;;;14.10;72.72;100355.25;5011655;28;20072;-45
2023/07/06 04:30:37;;;;;;;5.35;1.42;;;;;;;14.08;72.59;100352.06;5000122;28;20401;-45
2023/07/06 04:33:05;;;;;;;3.85;1.30;;;;;;;14.10;72.72;100355.25;5011628;28;20049;-45
2023/07/06 04:35:32;;;;;;;2.45;1.08;;;;;;;14.12;72.77;100352.88;5011959;28;20045;-44
2023/07/06 04:37:59;;;;;;;4.60;1.30;;;;;;;14.10;72.52;100358.84;5011926;28;20046;-46
2023/07/06 04:40:26;;;;;;;5.55;1.40;;;;;;;14.09;72.52;100359.19;5011837;28;20053;-45
2023/07/06 04:42:54;;;;;;;3.25;0.95;;;;;;;14.06;72.32;100357.97;5011001;28;20038;-45
2023/07/06 04:45:24;;;;;;;2.03;1.10;;;;;;;14.05;72.66;100364.75;5011592;28;20049;-45
2023/07/06 04:47:51;;;;;;;5.82;1.60;;;;;;;14.07;72.67;100350.44;5010514;28;20038;-45
2023/07/06 04:50:22;;;;;;;2.88;1.40;;;;;;;14.08;72.51;100349.28;5005498;28;20137;-45
2023/07/06 04:52:58;;;;;;;2.65;0.98;;;;;;;14.07;72.56;100354.03;5009231;28;20068;-45
2023/07/06 04:55:27;;;;;;;3.33;1.60;;;;;;;14.07;72.41;100358.78;5011531;28;20466;-46
2023/07/06 04:57:57;;;;;;;5.35;1.48;;;;;;;14.07;72.57;100350.44;5011286;28;20050;-49
2023/07/06 05:00:26;;;;;;;3.78;1.13;;;;;;;14.08;72.39;100349.28;5011625;28;20052;-45
2023/07/06 05:02:55;;;;;;;3.90;0.90;;;;;;;14.09;72.30;100350.84;5018917;28;20054;-46
2023/07/06 05:05:22;;;;;;;4.18;1.63;;;;;;;14.08;72.47;100352.06;5025450;28;20049;-45
2023/07/06 05:07:50;;;;;;;4.40;1.10;;;;;;;14.07;72.46;100356.81;5028253;28;20045;-45
2023/07/06 05:10:17;;;;;;;4.72;1.23;;;;;;;14.07;72.37;100356.00;5030840;28;20045;-48
2023/07/06 05:12:44;;;;;;;8.27;2.03;;;;;;;14.09;72.32;100356.41;5031744;28;20474;-45
2023/07/06 05:15:11;;;;;;;6.53;1.00;;;;;;;14.14;72.34;100354.09;5030885;28;20049;-45
2023/07/06 05:17:39;;;;;;;2.65;1.13;;;;;;;14.17;72.28;100349.75;5030047;28;20057;-46
2023/07/06 05:20:07;;;;;;;3.13;1.08;;;;;;;14.18;72.45;100352.19;5030707;28;20068;-45
2023/07/06 05:22:39;;;;;;;8.55;1.58;;;;;;;14.18;72.38;100354.16;5029280;28;20069;-45
2023/07/06 05:25:07;;;;;;;4.72;1.30;;;;;;;14.19;72.22;100347.44;5030938;28;20049;-47
2023/07/06 05:27:35;;;;;;;4.80;1.23;;;;;;;14.20;72.36;100343.44;5031080;28;20522;-45
2023/07/06 05:30:03;;;;;;;2.33;1.42;;;;;;;14.22;72.24;100346.63;5030882;28;20065;-45
2023/07/06 05:32:30;;;;;;;2.92;1.67;;;;;;;14.21;72.06;100345.88;5030822;28;20048;-45
2023/07/06 05:34:57;;;;;;;3.95;1.83;;;;;;;14.22;72.14;100346.63;5030797;28;20091;-46
2023/07/06 05:37:24;;;;;;;3.08;1.33;;;;;;;14.24;72.20;100345.13;5030025;28;20099;-45
2023/07/06 05:40:04;;;;;;;6.93;1.20;;;;;;;14.25;72.33;100341.13;5029241;28;20406;-45
2023/07/06 05:42:32;;;;;;;4.75;1.45;;;;;;;14.28;72.16;100351.50;5005640;28;20053;-47
2023/07/06 05:44:58;;;;;;;3.00;1.40;;;;;;;14.31;72.04;100350.78;5030815;28;20065;-45
2023/07/06 05:47:26;;;;;;;8.75;1.98;;;;;;;14.34;72.15;100343.66;5030806;28;20057;-49
2023/07/06 05:49:55;;;;;;;2.03;1.27;;;;;;;14.36;71.87;100342.09;5030437;28;20503;-46
2023/07/06 05:52:22;;;;;;;6.78;1.75;;;;;;;14.41;71.91;100340.94;5030408;28;20050;-45
2023/07/06 05:54:49;;;;;;;6.47;1.48;;;;;;;14.43;71.85;100346.91;5030717;28;20045;-46
2023/07/06 05:57:19;;;;;;;5.80;1.23;;;;;;;14.48;71.79;100341.03;5030700;28;20045;-47
2023/07/06 05:59:48;;;;;;;4.43;1.45;;;;;;;14.50;71.80;100333.09;5032244;28;20073;-45
2023/07/06 06:02:18;;;;;;;4.03;1.48;;;;;;;14.53;71.57;100335.91;5033171;28;20538;-46
2023/07/06 06:04:47;;;;;;;3.08;1.42;;;;;;;14.57;71.49;100336.75;5034743;28;20504;-45
2023/07/06 06:07:15;;;;;;;5.68;1.55;;;;;;;14.63;71.41;100335.22;5033786;28;20076;-45
2023/07/06 06:09:42;;;;;;;3.85;1.40;;;;;;;14.68;71.28;100339.66;5034379;28;20048;-45
2023/07/06 06:12:17;;;;;;;2.10;1.27;;;;;;;14.71;71.12;100333.31;5034157;28;20073;-45
2023/07/06 06:14:46;;;;;;;5.72;1.17;;;;;;;14.74;70.95;100335.34;5034325;28;20049;-45
2023/07/06 06:17:15;;;;;;;2.38;1.30;;;;;;;14.76;70.74;100332.97;5033758;28;20053;-44
2023/07/06 06:19:42;;;;;;;2.55;1.27;;;;;;;14.80;70.62;100333.78;5028203;28;20419;-45
2023/07/06 06:22:09;;;;;;;2.90;1.00;;;;;;;14.83;70.46;100327.44;5034287;28;20526;-45
2023/07/06 06:24:36;;;;;;;5.88;1.67;;;;;;;14.86;70.29;100329.47;5034133;28;20037;-45
2023/07/06 06:27:04;;;;;;;2.08;1.23;;;;;;;14.88;69.99;100332.66;5033917;28;20037;-46
2023/07/06 06:29:32;;;;;;;3.25;1.25;;;;;;;14.90;69.60;100335.91;5034133;28;20045;-45
2023/07/06 06:32:03;;;;;;;3.50;1.38;;;;;;;14.89;69.69;100331.50;5003744;28;20406;-45
2023/07/06 06:34:31;;;;;;;2.30;1.20;;;;;;;14.89;69.41;100331.50;5033977;28;20475;-45
2023/07/06 06:36:58;;;;;;;4.43;1.85;;;;;;;14.89;69.47;100325.91;5033274;28;20048;-45
2023/07/06 06:39:25;;;;;;;3.17;1.33;;;;;;;14.92;69.26;100325.16;5027985;28;20050;-46
2023/07/06 06:41:52;;;;;;;3.92;1.15;;;;;;;14.98;69.21;100323.63;5033894;28;20051;-46
2023/07/06 06:44:20;;;;;;;4.22;1.17;;;;;;;15.08;69.14;100322.91;5014701;28;20077;-45
2023/07/06 06:46:47;;;;;;;3.08;1.17;;;;;;;15.22;68.94;100319.44;5029673;28;20100;-46
2023/07/06 06:49:14;;;;;;;2.20;1.33;;;;;;;15.35;68.86;100325.50;5028483;28;20072;-44
2023/07/06 06:51:42;;;;;;;5.28;1.33;;;;;;;15.46;68.38;100327.19;5033811;28;20669;-45
2023/07/06 06:54:09;;;;;;;4.57;1.40;;;;;;;15.54;68.36;100322.50;5033493;28;20130;-46
2023/07/06 06:56:35;;;;;;;5.93;1.10;;;;;;;15.63;68.05;100317.34;5034090;28;20402;-45
2023/07/06 06:59:02;;;;;;;2.72;1.10;;;;;;;15.68;67.74;100323.38;5033333;28;20049;-45
2023/07/06 07:01:31;;;;;;;4.40;1.10;;;;;;;15.69;67.37;100321.38;5033170;28;20067;-45
2023/07/06 07:04:02;;;;;;;8.57;1.40;;;;;;;15.67;67.26;100321.75;5033433;28;20057;-46
2023/07/06 07:06:30;;;;;;;6.93;2.90;;;;;;;15.68;67.06;100320.56;5033458;28;20050;-46
2023/07/06 07:09:00;;;;;;;1.02;0.98;;;;;;;15.75;67.02;100311.44;5032444;28;20038;-45
2023/07/06 07:11:26;;;;;;;3.92;1.17;;;;;;;15.87;66.99;100319.47;5031776;28;20045;-46
2023/07/06 07:13:53;;;;;;;6.05;2.47;;;;;;;16.02;66.72;100320.38;5033272;28;20041;-47
2023/07/06 07:16:21;;;;;;;3.45;1.20;;;;;;;16.19;66.47;100314.84;5032279;28;20057;-45
2023/07/06 07:18:48;;;;;;;2.75;1.30;;;;;;;16.35;66.10;100317.28;5032862;28;20398;-45
2023/07/06 07:21:18;;;;;;;4.20;1.95;;;;;;;16.49;66.03;100327.72;5032990;28;20045;-45
2023/07/06 07:23:47;;;;;;;3.90;1.20;;;;;;;16.51;65.40;100319.72;5032877;28;20091;-44
2023/07/06 07:26:17;;;;;;;2.75;1.42;;;;;;;16.52;65.20;100321.34;5033096;28;20045;-46
2023/07/06 07:28:47;;;;;;;5.63;0.90;;;;;;;16.54;64.99;100307.78;5032881;28;20041;-45
2023/07/06 07:31:15;;;;;;;3.40;1.77;;;;;;;16.59;64.77;100304.59;5032883;28;20041;-45
2023/07/06 07:33:42;;;;;;;7.68;1.58;;;;;;;16.65;64.59;100308.63;5014490;28;20392;-49
2023/07/06 07:36:10;;;;;;;3.97;1.40;;;;;;;16.68;64.09;100303.00;5032677;28;20057;-44
2023/07/06 07:38:38;;;;;;;2.53;1.17;;;;;;;16.76;64.00;100310.22;5029669;28;20061;-45
2023/07/06 07:41:07;;;;;;;2.15;1.10;;;;;;;16.87;63.90;100305.44;5030757;28;20065;-46
2023/07/06 07:43:36;;;;;;;3.10;1.05;;;;;;;16.97;63.74;100303.88;5032748;28;20050;-45
2023/07/06 07:46:05;;;;;;;2.17;1.20;;;;;;;17.07;63.71;100310.66;5032270;28;20487;-45
2023/07/06 07:48:38;;;;;;;4.93;1.30;;;;;;;17.15;63.44;100301.88;5013742;28;20052;-44
2023/07/06 07:51:08;;;;;;;4.35;1.38;;;;;;;17.24;63.04;100299.44;5031993;28;20527;-45
2023/07/06 07:53:38;;;;;;;3.35;1.33;;;;;;;17.34;62.63;100301.44;5013976;28;20056;-47
2023/07/06 07:56:07;;;;;;;3.42;1.17;;;;;;;17.46;62.50;100309.41;5032231;28;20069;-46
2023/07/06 07:58:36;;;;;;;1.17;1.00;;;;;;;17.53;62.17;100306.63;5032302;28;20052;-45
2023/07/06 08:01:05;;;;;;;5.13;1.23;;;;;;;17.61;62.01;100305.41;5032163;28;20511;-47
2023/07/06 08:03:33;;;;;;;2.40;1.00;;;;;;;17.74;61.83;100299.41;5012705;28;20124;-47
2023/07/06 08:06:06;;;;;;;3.80;1.95;;;;;;;17.87;61.72;100295.72;5010924;28;20048;-45
2023/07/06 08:08:35;;;;;;;4.65;1.40;;;;;;;17.94;61.32;100289.31;5010994;28;20058;-50
2023/07/06 08:11:07;;;;;;;3.17;1.23;;;;;;;18.07;61.60;100293.28;5011927;28;20042;-45
2023/07/06 08:13:36;;;;;;;2.67;1.35;;;;;;;18.17;60.81;100284.00;5012197;28;20084;-46
2023/07/06 08:16:04;;;;;;;2.67;1.08;;;;;;;18.40;60.27;100291.91;5012136;28;20502;-46
2023/07/06 08:18:32;;;;;;;3.72;1.67;;;;;;;18.49;59.17;100284.69;5011400;28;20069;-45
2023/07/06 08:21:00;;;;;;;2.33;1.13;;;;;;;18.61;58.61;100287.00;5012207;28;20042;-44
2023/07/06 08:23:49;;;;;;;1.80;1.15;;;;;;;18.82;58.49;100292.44;5010971;28;20073;-48
2023/07/06 08:26:17;;;;;;;7.05;1.10;;;;;;;19.08;57.98;100290.25;5011874;28;20658;-46
2023/07/06 08:28:46;;;;;;;2.25;1.00;;;;;;;19.40;57.55;100296.41;5011843;28;20148;-47
2023/07/06 08:31:16;;;;;;;1.38;1.20;;;;;;;19.78;56.76;100295.19;5011944;28;20042;-45
2023/07/06 08:33:48;;;;;;;3.67;1.50;;;;;;;20.26;55.78;100292.22;5011802;28;20137;-46
2023/07/06 08:36:16;;;;;;;4.10;1.00;;;;;;;20.85;55.27;100298.22;5011128;28;20515;-49
2023/07/06 08:38:43;;;;;;;4.65;1.10;;;;;;;21.57;53.99;100295.81;5011727;28;20037;-46
2023/07/06 08:41:33;;;;;;;1.27;0.80;;;;;;;22.09;52.48;100293.19;5012119;28;20042;-47
2023/07/06 08:44:04;;;;;;;2.83;1.02;;;;;;;22.42;51.35;100292.09;5011764;28;20389;-47
2023/07/06 08:46:36;;;;;;;1.45;0.93;;;;;;;22.30;49.14;100282.28;5011758;28;20403;-45
2023/07/06 08:49:04;;;;;;;;;;;;;;;21.96;49.57;100295.09;5007266;28;20041;-46
2023/07/06 08:51:35;;;;;;;1.30;0.70;;;;;;;21.59;49.25;100282.88;5011553;28;20296;-47
2023/07/06 08:54:12;;;;;;;3.22;0.80;;;;;;;21.24;49.18;100275.06;5011520;28;20080;-45
2023/07/06 08:56:39;;;;;;;2.47;1.10;;;;;;;20.94;49.22;100283.63;5011425;28;20050;-46
2023/07/06 08:59:14;;;;;;;1.85;0.73;;;;;;;20.84;49.65;100273.31;5011389;28;20136;-45
2023/07/06 09:01:42;;;;;;;2.05;0.98;;;;;;;21.04;49.43;100269.38;4998535;28;20045;-46
2023/07/06 09:04:16;;;;;;;2.10;0.95;;;;;;;21.06;49.26;100266.94;5031088;28;20372;-45
2023/07/06 09:06:53;;;;;;;3.20;1.10;;;;;;;20.89;49.51;100262.34;5030773;28;20045;-46
2023/07/06 09:09:21;;;;;;;1.15;0.80;;;;;;;20.81;49.67;100257.31;5031136;28;20045;-47
2023/07/06 09:11:50;;;;;;;3.78;1.08;;;;;;;20.72;49.88;100248.59;5031432;28;20060;-45
2023/07/06 09:14:20;;;;;;;3.30;1.20;;;;;;;20.74;50.35;100246.13;5012676;28;20049;-46
2023/07/06 09:16:58;;;;;;;2.33;0.80;;;;;;;21.14;49.79;100247.91;5030548;28;20108;-45
2023/07/06 09:19:26;;;;;;;2.58;0.90;;;;;;;21.86;49.12;100243.34;5029433;28;20057;-46
2023/07/06 09:21:54;;;;;;;2.15;1.20;;;;;;;22.29;48.53;100246.81;5029000;28;20049;-43
2023/07/06 09:24:27;;;;;;;3.50;1.50;;;;;;;22.38;48.30;100244.22;5030879;28;20049;-47
2023/07/06 09:26:58;;;;;;;4.15;1.73;;;;;;;22.23;48.49;100254.22;5031131;28;20039;-47
2023/07/06 09:29:44;;;;;;;2.58;1.35;;;;;;;21.89;48.87;100248.13;5030783;28;20066;-46
2023/07/06 09:32:19;;;;;;;1.65;1.05;;;;;;;21.76;48.62;100249.97;5031080;28;20042;-45
2023/07/06 09:34:55;;;;;;;6.07;1.23;;;;;;;21.55;48.67;100237.06;5031310;28;20040;-45
2023/07/06 09:37:23;;;;;;;6.13;1.20;;;;;;;21.48;48.48;100236.41;5035003;28;20056;-48
2023/07/06 09:40:00;;;;;;;4.13;1.65;;;;;;;21.41;48.51;100242.19;5034957;28;20095;-47
2023/07/06 09:42:28;;;;;;;2.08;0.98;;;;;;;21.22;48.62;100246.56;5035077;28;20506;-49
2023/07/06 09:44:55;;;;;;;2.47;1.00;;;;;;;21.04;48.24;100237.59;5032015;28;20067;-46
2023/07/06 09:47:23;;;;;;;4.13;1.05;;;;;;;20.92;48.63;100232.56;5027394;28;20060;-45
2023/07/06 09:50:04;;;;;;;2.22;0.80;;;;;;;21.03;48.54;100222.72;5033123;28;20045;-45
2023/07/06 09:52:35;;;;;;;2.75;1.02;;;;;;;21.06;48.42;100221.91;5029417;28;20049;-47
2023/07/06 09:55:19;;;;;;;3.15;1.15;;;;;;;21.20;48.34;100210.41;5034767;28;20100;-46
2023/07/06 09:57:49;;;;;;;2.92;0.90;;;;;;;21.22;48.34;100202.31;5034674;28;20068;-48
2023/07/06 10:00:22;;;;;;;6.85;1.45;;;;;;;21.04;48.17;100199.00;5035076;28;20053;-47
2023/07/06 10:03:11;;;;;;;5.90;1.40;;;;;;;20.86;48.82;100206.97;5034356;28;20053;-45
2023/07/06 10:05:49;;;;;;;6.63;1.10;;;;;;;20.63;49.60;100209.75;5033875;28;20037;-46
2023/07/06 10:08:24;;;;;;;4.68;1.77;;;;;;;20.31;50.73;100186.94;5033973;28;20049;-45
2023/07/06 10:11:15;;;;;;;3.53;1.10;;;;;;;20.06;51.14;100192.91;5033873;28;20037;-46
2023/07/06 10:14:09;;;;;;;3.78;1.45;;;;;;;19.82;51.51;100194.84;5033858;28;20539;-45
2023/07/06 10:17:10;;;;;;;2.60;1.23;;;;;;;19.58;52.22;100181.91;5034216;28;20041;-47
2023/07/06 10:19:52;;;;;;;5.68;1.65;;;;;;;19.44;52.55;100179.25;5030597;28;20049;-45
2023/07/06 10:22:20;;;;;;;;;;;;;;;19.26;52.69;100168.19;5034367;28;20045;-45
2023/07/06 10:25:02;;;;;;;3.83;1.13;;;;;;;19.21;52.59;100167.84;5033746;28;19925;-45
2023/07/06 10:27:33;;;;;;;3.70;1.42;;;;;;;19.13;52.56;100158.72;5022749;28;20051;-48
2023/07/06 10:30:08;;;;;;;2.55;1.27;;;;;;;19.20;53.19;100155.84;5034019;28;20045;-46
2023/07/06 10:32:41;;;;;;;4.38;1.35;;;;;;;19.60;52.85;100154.19;5025323;28;20845;-45
2023/07/06 10:35:14;;;;;;;4.25;1.50;;;;;;;20.28;52.15;100156.88;5033011;28;20049;-52
2023/07/06 10:37:42;;;;;;;5.38;1.83;;;;;;;20.82;51.24;100160.41;5028344;28;20072;-47
2023/07/06 10:40:27;;;;;;;6.68;1.40;;;;;;;21.01;51.14;100154.03;5027460;28;20463;-45
2023/07/06 10:43:12;;;;;;;1.95;1.13;;;;;;;20.87;50.45;100162.72;5028457;28;20041;-45
2023/07/06 10:45:48;;;;;;;6.72;1.48;;;;;;;20.45;50.53;100155.78;5020509;28;20052;-45
2023/07/06 10:48:34;;;;;;;2.90;1.55;;;;;;;20.00;51.39;100150.44;5033166;28;20053;-45
2023/07/06 10:51:04;;;;;;;4.20;1.48;;;;;;;19.67;52.08;100154.09;5032083;28;20428;-45
2023/07/06 10:53:40;;;;;;;4.47;1.25;;;;;;;19.42;52.82;100148.81;5023250;28;20037;-50
2023/07/06 10:56:17;;;;;;;3.67;1.17;;;;;;;19.31;53.57;100144.47;5029887;28;20042;-46
2023/07/06 10:58:57;;;;;;;2.60;1.60;;;;;;;19.34;53.64;100129.63;5032927;28;20049;-45
2023/07/06 11:01:39;;;;;;;3.97;1.80;;;;;;;19.40;54.07;100137.19;5024287;28;20115;-46
2023/07/06 11:04:41;;;;;;;7.28;2.20;;;;;;;19.50;53.91;100132.66;5032300;28;20090;-45
2023/07/06 11:07:19;;;;;;;;;;;;;;;19.43;53.64;100141.94;4993523;28;20502;-47
2023/07/06 11:10:09;;;;;;;8.48;2.15;;;;;;;19.31;54.78;100147.28;5033339;28;19925;-46
2023/07/06 11:13:02;;;;;;;10.93;2.00;;;;;;;19.10;56.34;100147.53;5020061;28;20453;-50
2023/07/06 11:15:35;;;;;;;;;;;;;;;18.87;57.57;100144.56;5033053;28;20041;-45
2023/07/06 11:18:17;;;;;;;4.85;1.50;;;;;;;18.71;57.81;100136.72;5024512;28;19921;-45
2023/07/06 11:20:51;;;;;;;5.30;1.70;;;;;;;18.61;58.29;100137.63;5020508;28;20046;-46
2023/07/06 11:23:31;;;;;;;6.30;1.75;;;;;;;18.54;58.92;100143.25;5019216;28;20136;-47
2023/07/06 11:25:59;;;;;;;5.10;1.60;;;;;;;18.47;58.73;100137.69;5032922;28;20049;-45
2023/07/06 11:28:27;;;;;;;2.42;1.05;;;;;;;18.40;58.76;100138.53;5031833;28;20430;-47
2023/07/06 11:31:14;;;;;;;2.78;1.35;;;;;;;18.43;59.06;100142.50;5028351;28;20503;-47
2023/07/06 11:33:55;;;;;;;3.30;1.20;;;;;;;18.50;58.30;100137.72;5029900;28;20057;-46
2023/07/06 11:36:26;;;;;;;3.25;1.60;;;;;;;18.47;57.98;100127.31;5031473;28;20041;-45
2023/07/06 11:39:09;;;;;;;5.33;1.43;;;;;;;18.45;58.17;100128.91;5029108;28;20119;-47
2023/07/06 11:41:40;;;;;;;5.03;1.92;;;;;;;18.27;58.13;100122.66;5028386;28;20132;-46
2023/07/06 11:44:16;;;;;;;7.53;1.58;;;;;;;18.10;59.04;100121.56;5028168;28;20550;-45
2023/07/06 11:47:16;;;;;;;4.70;1.77;;;;;;;17.87;59.48;100116.50;5018682;28;20059;-45